Time;durP1;ratioP1;P1;durP2;ratioP2;P2;SDS_P1;SDS_P2;PMS_P1;PMS_P2;Temp;Humidity;BMP_temperature;BMP_pressure;BME280_temperature;BME280_humidity;BME280_pressure;Samples;Min_cycle;Max_cycle;Signal;HPM_P1;HPM_P2
2023/03/24 00:00:20;;;;;;;13.00;9.30;;;9.60;99.90;;;;;;10413643;28;20227;-88
2023/03/24 00:05:23;;;;;;;15.90;10.07;;;9.40;99.90;;;;;;10413892;28;20247;-90
2023/03/24 00:10:29;;;;;;;18.63;9.50;;;9.00;99.90;;;;;;10385196;28;20230;-89
2023/03/24 00:15:32;;;;;;;16.00;10.67;;;8.90;99.90;;;;;;10372569;28;20193;-88
2023/03/24 00:20:35;;;;;;;18.07;11.20;;;8.70;99.90;;;;;;10376924;28;20257;-89
2023/03/24 00:25:39;;;;;;;15.60;10.37;;;8.50;99.90;;;;;;10395625;28;20255;-89
2023/03/24 00:30:41;;;;;;;14.73;10.73;;;8.40;99.90;;;;;;10394150;28;20258;-89
2023/03/24 00:35:44;;;;;;;30.17;11.03;;;8.40;99.90;;;;;;10394978;28;20227;-89
2023/03/24 00:40:47;;;;;;;17.23;9.97;;;8.40;99.90;;;;;;10394544;28;20257;-90
2023/03/24 00:45:56;;;;;;;14.10;9.70;;;8.20;99.90;;;;;;10411883;28;20259;-89
2023/03/24 00:51:04;;;;;;;15.10;6.20;;;8.20;99.90;;;;;;10352656;28;20290;-89
2023/03/24 00:56:07;;;;;;;15.60;9.33;;;8.50;99.90;;;;;;10353283;28;20567;-89
2023/03/24 01:01:10;;;;;;;15.03;9.80;;;8.50;99.90;;;;;;10352264;28;20625;-89
2023/03/24 01:06:13;;;;;;;16.03;11.17;;;8.40;99.90;;;;;;10354399;28;20712;-90
2023/03/24 01:11:16;;;;;;;12.63;8.90;;;8.50;99.90;;;;;;10411330;28;20620;-89
2023/03/24 01:16:24;;;;;;;12.87;9.57;;;8.50;99.90;;;;;;10391359;28;20292;-89
2023/03/24 01:21:27;;;;;;;12.00;7.17;;;8.50;99.90;;;;;;10372382;28;20644;-89
2023/03/24 01:26:30;;;;;;;12.53;9.53;;;8.60;99.90;;;;;;10369521;28;20689;-89
2023/03/24 01:31:32;;;;;;;11.43;8.13;;;8.80;99.90;;;;;;10362010;28;20214;-89
2023/03/24 01:36:35;;;;;;;11.77;7.87;;;8.80;99.90;;;;;;10365799;28;20296;-89
2023/03/24 01:41:38;;;;;;;14.63;9.63;;;8.70;99.90;;;;;;10368985;28;20237;-90
2023/03/24 01:46:44;;;;;;;14.40;10.00;;;8.60;99.90;;;;;;10350556;28;20267;-89
2023/03/24 01:51:52;;;;;;;14.00;8.63;;;8.60;99.90;;;;;;10370708;28;20282;-89
2023/03/24 01:57:02;;;;;;;12.40;8.20;;;8.70;99.90;;;;;;10368186;28;20239;-89
2023/03/24 02:02:08;;;;;;;14.33;9.27;;;8.80;99.90;;;;;;10350567;28;20311;-89
2023/03/24 02:07:44;;;;;;;10.70;6.17;;;8.90;99.90;;;;;;10364580;28;20253;-89
2023/03/24 02:12:47;;;;;;;8.83;5.97;;;9.00;99.90;;;;;;10378633;28;20670;-90
2023/03/24 02:18:32;;;;;;;10.73;7.80;;;8.90;99.90;;;;;;10386393;28;20251;-89
2023/03/24 02:23:54;;;;;;;9.53;7.50;;;9.00;99.90;;;;;;10390571;28;20973;-88
2023/03/24 02:29:31;;;;;;;11.27;8.00;;;8.90;99.90;;;;;;10387320;28;20267;-89
2023/03/24 02:34:34;;;;;;;9.20;6.97;;;8.80;99.90;;;;;;10377924;28;20574;-89
2023/03/24 02:39:49;;;;;;;7.40;4.57;;;8.70;99.90;;;;;;10334201;28;20926;-89
2023/03/24 02:45:20;;;;;;;7.63;5.03;;;8.90;99.90;;;;;;10400817;28;20361;-89
2023/03/24 02:50:28;;;;;;;12.17;7.33;;;9.10;99.90;;;;;;10388875;28;20315;-89
2023/03/24 02:55:38;;;;;;;10.67;8.37;;;9.20;99.90;;;;;;10361759;28;20210;-89
2023/03/24 03:00:46;;;;;;;9.80;7.67;;;9.30;99.90;;;;;;10407972;28;20635;-88
2023/03/24 03:06:24;;;;;;;12.50;7.50;;;9.10;99.90;;;;;;10358283;28;20272;-88
2023/03/24 03:11:27;;;;;;;6.83;5.70;;;9.00;99.90;;;;;;10356335;28;20266;-88
2023/03/24 03:16:37;;;;;;;7.13;5.50;;;9.00;99.90;;;;;;10365263;28;20212;-88
2023/03/24 03:21:42;;;;;;;6.83;5.27;;;9.20;99.90;;;;;;10397696;28;20214;-88
2023/03/24 03:26:47;;;;;;;4.57;3.90;;;9.30;99.90;;;;;;10381040;28;20274;-88
2023/03/24 03:32:06;;;;;;;4.60;4.20;;;9.30;99.90;;;;;;10389329;28;20597;-89
2023/03/24 03:37:30;;;;;;;13.33;5.47;;;9.40;99.90;;;;;;10361390;28;20627;-89
2023/03/24 03:42:33;;;;;;;7.33;5.77;;;9.30;99.90;;;;;;10372660;28;20204;-89
2023/03/24 03:47:36;;;;;;;5.53;4.30;;;9.40;99.90;;;;;;10388469;28;20255;-89
2023/03/24 03:52:40;;;;;;;4.80;4.27;;;9.50;99.90;;;;;;10396926;28;20615;-89
2023/03/24 03:57:43;;;;;;;12.87;7.93;;;9.40;99.90;;;;;;10382188;28;20642;-88
2023/03/24 04:03:35;;;;;;;9.50;6.90;;;9.40;99.90;;;;;;10380707;28;20251;-88
2023/03/24 04:08:55;;;;;;;5.80;4.97;;;9.30;99.90;;;;;;10395256;28;20317;-89
2023/03/24 04:14:29;;;;;;;12.67;7.37;;;9.20;99.90;;;;;;10395617;28;20648;-88
2023/03/24 04:20:11;;;;;;;11.23;7.40;;;9.00;99.90;;;;;;10389671;28;20355;-89
2023/03/24 04:25:28;;;;;;;7.60;6.10;;;9.10;99.90;;;;;;10355769;28;20685;-88
2023/03/24 04:30:49;;;;;;;5.90;4.43;;;9.00;99.90;;;;;;10354066;28;20293;-89
2023/03/24 04:36:17;;;;;;;7.73;5.40;;;9.10;99.90;;;;;;10344773;28;20334;-89
2023/03/24 04:41:44;;;;;;;9.70;6.50;;;9.00;99.90;;;;;;10272324;28;20739;-89
2023/03/24 04:46:57;;;;;;;8.83;6.23;;;8.90;99.90;;;;;;10245401;29;20312;-89
2023/03/24 04:51:59;;;;;;;5.03;4.50;;;9.10;99.90;;;;;;10230374;28;20280;-88
2023/03/24 04:57:06;;;;;;;6.73;5.33;;;9.20;99.90;;;;;;10239780;28;20244;-88
2023/03/24 05:02:15;;;;;;;8.87;5.30;;;9.30;99.90;;;;;;10268689;28;21034;-89
2023/03/24 05:07:30;;;;;;;7.23;5.80;;;9.40;99.90;;;;;;10267477;28;20261;-88
2023/03/24 05:12:36;;;;;;;10.77;7.83;;;9.50;99.90;;;;;;10266827;28;20680;-88
2023/03/24 05:18:14;;;;;;;9.33;6.57;;;9.60;99.90;;;;;;10329816;28;20244;-88
2023/03/24 05:23:17;;;;;;;12.40;7.03;;;9.70;99.90;;;;;;10354312;28;20238;-89
2023/03/24 05:28:21;;;;;;;8.27;6.70;;;9.80;99.90;;;;;;10392566;28;20259;-88
2023/03/24 05:33:26;;;;;;;9.43;6.13;;;10.00;99.90;;;;;;10390418;28;20274;-89
2023/03/24 05:38:29;;;;;;;9.37;6.63;;;10.10;99.90;;;;;;10364684;28;20281;-88
2023/03/24 05:43:32;;;;;;;12.00;6.60;;;10.20;99.90;;;;;;10392011;28;20247;-89
2023/03/24 05:48:45;;;;;;;7.87;6.67;;;10.50;99.90;;;;;;10390246;28;20320;-88
2023/03/24 05:53:53;;;;;;;9.73;6.13;;;10.70;99.90;;;;;;10351222;28;20201;-89
2023/03/24 05:59:05;;;;;;;10.00;6.27;;;10.80;99.90;;;;;;10362241;28;20239;-89
2023/03/24 06:04:30;;;;;;;9.57;5.60;;;10.90;99.90;;;;;;10370901;28;20241;-89
2023/03/24 06:09:41;;;;;;;8.47;6.47;;;11.00;99.90;;;;;;10351252;28;20252;-89
2023/03/24 06:14:47;;;;;;;9.07;6.00;;;11.20;99.90;;;;;;10383854;28;20214;-88
2023/03/24 06:19:50;;;;;;;9.40;6.57;;;11.20;99.90;;;;;;10381577;28;20270;-89
2023/03/24 06:25:27;;;;;;;9.90;7.80;;;11.20;99.90;;;;;;10243458;28;20242;-89
2023/03/24 06:30:45;;;;;;;12.20;6.73;;;11.30;99.90;;;;;;10218884;28;20260;-89
2023/03/24 06:35:53;;;;;;;7.77;6.97;;;11.50;99.90;;;;;;10250061;28;20649;-89
2023/03/24 06:41:00;;;;;;;6.93;6.23;;;11.70;99.90;;;;;;10262992;28;20428;-88
2023/03/24 06:46:04;;;;;;;4.43;3.57;;;11.70;99.90;;;;;;10265995;28;20712;-90
2023/03/24 06:51:08;;;;;;;6.80;5.17;;;12.00;99.90;;;;;;10263991;28;20254;-90
2023/03/24 06:56:16;;;;;;;11.80;5.57;;;12.60;99.90;;;;;;10261377;28;20280;-90
2023/03/24 07:01:24;;;;;;;8.80;5.60;;;13.00;99.90;;;;;;10343045;28;20267;-90
2023/03/24 07:06:28;;;;;;;4.80;3.87;;;13.50;99.90;;;;;;10375268;28;20228;-90
2023/03/24 07:11:37;;;;;;;5.70;3.37;;;13.60;99.90;;;;;;10372384;28;20726;-91
2023/03/24 07:16:40;;;;;;;4.83;3.30;;;13.90;99.90;;;;;;10396437;28;20770;-90
2023/03/24 07:22:09;;;;;;;4.90;3.57;;;14.30;99.90;;;;;;10366275;28;20217;-91
2023/03/24 07:27:37;;;;;;;3.93;3.07;;;14.60;99.90;;;;;;10342242;28;20256;-89
2023/03/24 07:32:44;;;;;;;5.03;4.53;;;14.70;99.90;;;;;;10365442;28;20647;-89
2023/03/24 07:37:48;;;;;;;3.10;2.73;;;15.00;99.90;;;;;;10356981;28;20211;-88
2023/03/24 07:42:51;;;;;;;4.87;3.40;;;15.20;99.90;;;;;;10392236;28;20236;-90
2023/03/24 07:48:16;;;;;;;2.97;2.63;;;15.30;99.90;;;;;;10372180;28;20275;-88
2023/03/24 07:53:18;;;;;;;6.43;4.20;;;15.40;99.90;;;;;;10359280;28;20635;-93
2023/03/24 07:58:22;;;;;;;9.80;3.77;;;15.70;99.90;;;;;;10381082;28;20298;-89
2023/03/24 08:03:47;;;;;;;5.63;3.57;;;15.60;99.90;;;;;;10389946;28;20215;-86
2023/03/24 08:08:50;;;;;;;4.87;3.40;;;15.40;99.90;;;;;;10406450;28;20255;-86
2023/03/24 08:13:53;;;;;;;4.67;3.13;;;15.60;99.90;;;;;;10398377;28;20252;-88
2023/03/24 08:18:58;;;;;;;3.40;2.80;;;15.70;99.90;;;;;;10450815;28;20673;-87
2023/03/24 08:24:01;;;;;;;5.50;4.53;;;15.60;99.90;;;;;;10429253;28;20234;-84
2023/03/24 08:40:22;;;;;;;6.53;5.40;;;15.40;99.90;;;;;;10202091;29;20333;-87
2023/03/24 08:45:27;;;;;;;5.00;4.60;;;15.30;99.90;;;;;;10234721;29;20233;-87
2023/03/24 08:50:34;;;;;;;5.60;3.90;;;15.40;99.90;;;;;;10236312;29;20274;-87
2023/03/24 08:55:40;;;;;;;7.27;4.03;;;15.90;99.90;;;;;;10205282;29;20265;-87
2023/03/24 09:00:44;;;;;;;5.63;3.53;;;16.20;99.90;;;;;;10209242;29;20642;-88
2023/03/24 09:05:47;;;;;;;4.83;3.67;;;16.40;99.90;;;;;;10232170;29;20235;-88
2023/03/24 09:10:50;;;;;;;5.17;3.70;;;16.40;99.90;;;;;;10205753;29;20254;-89
2023/03/24 09:15:57;;;;;;;3.13;2.83;;;16.40;99.90;;;;;;10205252;29;20235;-87
2023/03/24 09:21:00;;;;;;;6.57;4.90;;;16.60;99.90;;;;;;10205530;29;20234;-87
2023/03/24 09:26:04;;;;;;;7.73;4.67;;;16.70;99.90;;;;;;10217677;29;20253;-89
2023/03/24 09:31:06;;;;;;;3.23;2.87;;;16.80;99.90;;;;;;10230412;29;20712;-88
2023/03/24 09:36:10;;;;;;;4.77;3.00;;;16.80;99.90;;;;;;10196622;29;20755;-89
2023/03/24 09:41:27;;;;;;;5.37;4.10;;;16.90;99.90;;;;;;10189766;29;20238;-89
2023/03/24 09:46:45;;;;;;;5.93;3.50;;;16.80;99.90;;;;;;10214444;29;20663;-89
2023/03/24 09:51:52;;;;;;;5.30;3.70;;;16.80;99.90;;;;;;10201684;29;20321;-90
2023/03/24 09:56:56;;;;;;;2.93;2.73;;;16.90;99.90;;;;;;10183320;28;20329;-89
2023/03/24 10:01:59;;;;;;;9.13;3.37;;;17.10;98.80;;;;;;10193806;29;20790;-90
2023/03/24 10:07:38;;;;;;;3.77;3.27;;;17.10;98.70;;;;;;10205636;29;20697;-90
2023/03/24 10:12:50;;;;;;;6.87;4.33;;;17.00;98.80;;;;;;10205262;29;20285;-90
2023/03/24 10:18:12;;;;;;;4.03;2.97;;;16.90;98.00;;;;;;10201389;29;20367;-91
2023/03/24 10:23:24;;;;;;;3.33;2.70;;;16.90;98.10;;;;;;10206686;29;20294;-90
2023/03/24 10:28:37;;;;;;;4.83;3.93;;;16.80;98.80;;;;;;10202487;29;20266;-91
2023/03/24 10:33:44;;;;;;;2.97;2.27;;;16.90;97.80;;;;;;10181923;29;20760;-90
2023/03/24 10:38:47;;;;;;;3.37;2.90;;;17.20;99.10;;;;;;10203984;29;20263;-89
2023/03/24 10:43:53;;;;;;;4.20;2.97;;;17.50;98.40;;;;;;10213107;29;20245;-89
2023/03/24 10:49:18;;;;;;;4.70;3.60;;;17.40;98.40;;;;;;10215623;29;20333;-90
2023/03/24 10:54:25;;;;;;;4.90;3.80;;;17.50;97.90;;;;;;10210231;29;20605;-89
2023/03/24 10:59:46;;;;;;;7.80;3.17;;;17.50;97.90;;;;;;10234740;29;20265;-89
2023/03/24 11:05:11;;;;;;;7.20;5.43;;;17.50;97.50;;;;;;10203067;29;20231;-89
2023/03/24 11:10:23;;;;;;;5.47;3.67;;;17.40;97.30;;;;;;10204301;29;20309;-88
2023/03/24 11:15:54;;;;;;;5.40;4.50;;;17.40;97.50;;;;;;10204355;29;20238;-88
2023/03/24 11:21:05;;;;;;;3.03;2.30;;;17.40;97.20;;;;;;10181064;29;20727;-89
2023/03/24 11:26:22;;;;;;;3.23;2.93;;;17.40;97.20;;;;;;10185914;29;20308;-88
2023/03/24 11:31:37;;;;;;;3.53;1.47;;;17.50;96.90;;;;;;10204102;29;20305;-90
2023/03/24 11:37:04;;;;;;;4.13;2.70;;;17.40;97.10;;;;;;10175441;29;20295;-89
2023/03/24 11:42:13;;;;;;;6.63;4.50;;;17.30;96.90;;;;;;10194029;29;20627;-88
2023/03/24 11:47:20;;;;;;;5.70;3.40;;;17.10;97.90;;;;;;10175123;29;20301;-90
2023/03/24 11:52:27;;;;;;;5.87;3.37;;;17.20;98.30;;;;;;10213070;29;20332;-89
2023/03/24 11:57:57;;;;;;;6.17;3.37;;;17.20;98.00;;;;;;10184504;29;20242;-90
2023/03/24 12:03:06;;;;;;;3.67;2.70;;;17.40;98.20;;;;;;10208992;29;20230;-91
2023/03/24 12:08:37;;;;;;;7.33;4.07;;;17.60;97.70;;;;;;10208634;29;20258;-90
2023/03/24 12:13:44;;;;;;;6.20;5.10;;;17.90;96.70;;;;;;10225157;29;20249;-90
2023/03/24 12:19:05;;;;;;;1.77;1.67;;;18.10;96.60;;;;;;10209973;29;20290;-89
2023/03/24 12:24:30;;;;;;;3.43;3.13;;;18.10;95.50;;;;;;10210607;29;20239;-90
2023/03/24 12:30:01;;;;;;;5.73;3.80;;;18.30;95.40;;;;;;10207693;29;20266;-89
2023/03/24 12:35:10;;;;;;;4.73;3.00;;;18.40;95.40;;;;;;10191873;29;20239;-89
2023/03/24 12:40:37;;;;;;;3.83;1.93;;;18.60;94.50;;;;;;10195897;29;20270;-89
2023/03/24 12:45:44;;;;;;;3.77;3.27;;;18.80;93.70;;;;;;10190985;29;20230;-90
2023/03/24 12:50:49;;;;;;;2.87;1.73;;;19.00;93.70;;;;;;10207497;29;20669;-90
2023/03/24 12:56:12;;;;;;;2.23;1.87;;;19.10;92.50;;;;;;10190585;29;20251;-91
2023/03/24 13:01:36;;;;;;;3.33;2.87;;;19.10;92.10;;;;;;10189691;29;20234;-90
2023/03/24 13:06:57;;;;;;;3.43;1.77;;;19.20;92.00;;;;;;10223503;29;20698;-90
2023/03/24 13:12:02;;;;;;;4.70;2.03;;;19.30;91.20;;;;;;10199558;29;20254;-91
2023/03/24 13:17:12;;;;;;;3.90;1.33;;;19.40;90.60;;;;;;10208231;29;20234;-90
2023/03/24 13:22:19;;;;;;;2.27;1.80;;;19.40;90.40;;;;;;10221069;29;20242;-89
2023/03/24 13:27:32;;;;;;;2.10;1.83;;;19.40;89.50;;;;;;10221899;29;20302;-89
2023/03/24 13:32:49;;;;;;;1.57;1.30;;;19.20;89.90;;;;;;10188954;29;20645;-90
2023/03/24 13:38:09;;;;;;;4.57;1.77;;;19.30;89.90;;;;;;10216920;29;20654;-90
2023/03/24 13:43:19;;;;;;;1.33;1.20;;;19.20;85.80;;;;;;10246757;29;20301;-88
2023/03/24 13:48:27;;;;;;;1.30;0.73;;;19.20;77.20;;;;;;10246650;29;20607;-90
2023/03/24 13:53:38;;;;;;;1.67;0.80;;;19.00;76.10;;;;;;10204880;29;20348;-90
2023/03/24 13:59:09;;;;;;;0.50;0.47;;;18.90;80.20;;;;;;10189473;29;20657;-91
2023/03/24 14:04:17;;;;;;;3.00;1.03;;;19.00;78.80;;;;;;10191221;29;20241;-90
2023/03/24 14:09:24;;;;;;;1.40;0.70;;;19.10;77.60;;;;;;10245948;29;20727;-90
2023/03/24 14:14:28;;;;;;;1.90;1.27;;;19.10;76.90;;;;;;10246392;29;20306;-90
2023/03/24 14:19:52;;;;;;;0.73;0.73;;;18.80;75.30;;;;;;10230633;29;20289;-89
2023/03/24 14:25:00;;;;;;;1.13;0.97;;;18.70;79.20;;;;;;10167405;29;20259;-89
2023/03/24 14:30:27;;;;;;;1.47;0.87;;;18.80;79.30;;;;;;10189399;29;20825;-88
2023/03/24 14:35:30;;;;;;;2.47;0.97;;;19.00;84.10;;;;;;10186431;29;20242;-88
2023/03/24 14:40:37;;;;;;;2.67;1.17;;;19.00;84.60;;;;;;10209732;29;20673;-88
2023/03/24 14:45:52;;;;;;;4.40;1.30;;;19.00;85.10;;;;;;10218845;29;20235;-87
2023/03/24 14:51:00;;;;;;;3.00;0.87;;;18.80;88.80;;;;;;10204911;29;20258;-88
2023/03/24 14:56:11;;;;;;;5.50;1.30;;;18.90;79.30;;;;;;10219712;29;20630;-88
2023/03/24 15:01:16;;;;;;;5.00;1.70;;;19.10;93.50;;;;;;10175410;29;20641;-88
2023/03/24 15:06:22;;;;;;;6.40;1.60;;;19.20;92.80;;;;;;10205621;29;20243;-88
2023/03/24 15:11:30;;;;;;;3.67;1.60;;;19.20;92.00;;;;;;10210122;29;20674;-88
2023/03/24 15:16:35;;;;;;;3.50;1.50;;;19.20;91.70;;;;;;10196003;29;20631;-88
2023/03/24 15:21:46;;;;;;;6.20;1.70;;;19.00;90.20;;;;;;10212229;29;20231;-88
2023/03/24 15:26:52;;;;;;;4.47;1.57;;;19.00;91.80;;;;;;10211683;29;20230;-90
2023/03/24 15:31:55;;;;;;;3.13;1.60;;;18.90;92.00;;;;;;10210877;29;20675;-90
2023/03/24 15:37:02;;;;;;;2.60;1.67;;;18.80;91.00;;;;;;10210049;29;20316;-88
2023/03/24 15:42:16;;;;;;;3.63;1.50;;;18.80;92.10;;;;;;10193566;29;20242;-88
2023/03/24 15:47:36;;;;;;;1.73;1.03;;;18.30;93.10;;;;;;10211929;29;20648;-87
2023/03/24 15:52:39;;;;;;;2.90;1.27;;;18.30;94.00;;;;;;10218121;29;20326;-89
2023/03/24 15:57:41;;;;;;;2.00;1.00;;;18.50;93.50;;;;;;10205898;29;20657;-88
2023/03/24 16:02:50;;;;;;;3.60;1.90;;;18.40;93.00;;;;;;10209175;29;20231;-90
2023/03/24 16:07:58;;;;;;;1.60;1.10;;;18.30;93.50;;;;;;10232607;29;20296;-88
2023/03/24 16:13:18;;;;;;;0.90;0.90;;;18.20;93.60;;;;;;10212126;29;20750;-87
2023/03/24 16:18:25;;;;;;;4.83;3.60;;;17.90;92.40;;;;;;10222913;28;20237;-88
2023/03/24 16:23:30;;;;;;;5.37;2.93;;;16.70;94.40;;;;;;10211822;29;20632;-93
2023/03/24 16:28:33;;;;;;;3.63;2.80;;;16.60;97.50;;;;;;10211073;29;20666;-93
2023/03/24 16:33:35;;;;;;;4.13;2.60;;;17.20;95.90;;;;;;10211243;29;20707;-93
2023/03/24 16:38:38;;;;;;;5.80;2.77;;;17.50;94.50;;;;;;10209545;29;20259;-94
2023/03/24 16:43:42;;;;;;;4.63;2.30;;;17.70;93.40;;;;;;10193949;29;20678;-92
2023/03/24 16:48:44;;;;;;;2.70;2.00;;;17.80;92.30;;;;;;10209356;29;20251;-92
2023/03/24 16:53:48;;;;;;;2.40;1.13;;;18.00;91.60;;;;;;10209519;29;20266;-93
2023/03/24 16:58:52;;;;;;;2.60;1.40;;;18.00;91.70;;;;;;10193353;29;20252;-93
2023/03/24 17:04:11;;;;;;;3.43;1.50;;;18.00;88.00;;;;;;10209744;29;20255;-93
2023/03/24 17:09:14;;;;;;;2.77;1.83;;;17.90;89.50;;;;;;10192101;29;20213;-93
2023/03/24 17:14:16;;;;;;;3.37;2.13;;;17.80;90.50;;;;;;10209531;29;20227;-93
2023/03/24 17:19:21;;;;;;;3.57;1.57;;;17.80;90.40;;;;;;10209924;29;20234;-94
2023/03/24 17:24:24;;;;;;;2.43;1.80;;;17.90;90.70;;;;;;10191301;29;20710;-94
2023/03/24 17:29:27;;;;;;;3.23;2.07;;;17.80;90.60;;;;;;10207935;29;20258;-92
2023/03/24 17:34:29;;;;;;;1.93;1.57;;;17.70;91.30;;;;;;10208449;29;20235;-93
2023/03/24 17:39:32;;;;;;;3.60;2.20;;;17.70;91.80;;;;;;10190721;29;20282;-93
2023/03/24 17:44:34;;;;;;;3.17;1.80;;;17.60;92.00;;;;;;10208066;29;20242;-93
2023/03/24 17:49:37;;;;;;;2.97;2.33;;;17.50;92.40;;;;;;10207928;29;20290;-92
2023/03/24 17:54:40;;;;;;;3.20;2.33;;;17.10;92.90;;;;;;10208300;29;20651;-92
2023/03/24 17:59:43;;;;;;;4.60;2.37;;;16.40;93.90;;;;;;10207980;29;20239;-93
2023/03/24 18:04:46;;;;;;;4.60;2.57;;;16.00;96.50;;;;;;10190392;29;20242;-93
2023/03/24 18:09:50;;;;;;;4.83;3.83;;;15.20;97.50;;;;;;10190303;29;20666;-92
2023/03/24 18:14:53;;;;;;;9.00;5.90;;;;;;;;;;10189923;29;20250;-93
2023/03/24 18:19:57;;;;;;;15.30;9.17;;;13.00;99.90;;;;;;10207057;29;20633;-93
2023/03/24 18:25:02;;;;;;;18.70;13.53;;;12.80;99.90;;;;;;10190048;29;20328;-92
2023/03/24 18:30:08;;;;;;;19.07;12.13;;;12.50;99.90;;;;;;10207186;29;20302;-94
2023/03/24 18:35:14;;;;;;;7.63;4.63;;;12.50;99.90;;;;;;10206825;29;20285;-93
2023/03/24 18:40:18;;;;;;;6.10;4.13;;;13.20;99.90;;;;;;10168050;29;20627;-92
2023/03/24 18:45:20;;;;;;;5.93;3.80;;;13.90;99.90;;;;;;10175859;29;20372;-92
2023/03/24 18:50:23;;;;;;;4.83;3.60;;;14.10;99.90;;;;;;10175478;29;20258;-93
2023/03/24 18:55:25;;;;;;;3.80;3.10;;;14.30;99.90;;;;;;10174755;29;20764;-93
2023/03/24 19:00:28;;;;;;;6.17;4.10;;;14.40;99.90;;;;;;10175688;29;20239;-93
2023/03/24 19:05:32;;;;;;;6.87;5.13;;;14.30;99.90;;;;;;10175023;29;20235;-93
2023/03/24 19:10:35;;;;;;;6.30;5.63;;;14.20;99.90;;;;;;10175028;29;20635;-92
2023/03/24 19:15:39;;;;;;;3.10;2.27;;;14.20;99.90;;;;;;10173110;29;20302;-93
2023/03/24 19:20:41;;;;;;;3.37;2.70;;;14.10;99.90;;;;;;10174999;29;20237;-93
2023/03/24 19:25:44;;;;;;;6.63;5.53;;;13.80;99.90;;;;;;10175019;29;20584;-93
2023/03/24 19:30:47;;;;;;;9.70;6.27;;;13.80;99.90;;;;;;10173149;29;20255;-93
2023/03/24 19:35:50;;;;;;;15.43;10.97;;;13.60;99.90;;;;;;10181818;29;20313;-91
2023/03/24 19:40:54;;;;;;;14.87;10.03;;;12.80;99.90;;;;;;10218195;29;20293;-91
2023/03/24 19:45:57;;;;;;;12.87;8.47;;;12.10;99.90;;;;;;10208495;29;20620;-91
2023/03/24 19:51:00;;;;;;;13.37;8.27;;;12.20;99.90;;;;;;10217690;29;20269;-93
2023/03/24 19:56:03;;;;;;;14.93;8.17;;;12.30;99.90;;;;;;10205520;29;20265;-90
2023/03/24 20:01:05;;;;;;;18.13;10.77;;;12.60;99.90;;;;;;10227061;29;20766;-90
2023/03/24 20:06:08;;;;;;;17.17;10.70;;;12.50;99.90;;;;;;10250377;29;20297;-88
2023/03/24 20:11:11;;;;;;;11.27;7.63;;;12.60;99.90;;;;;;9517462;29;10000363;-89
2023/03/24 20:16:14;;;;;;;19.20;11.93;;;12.80;99.90;;;;;;10187688;29;20677;-91
2023/03/24 20:21:21;;;;;;;30.33;15.47;;;12.60;99.90;;;;;;10214174;29;20242;-92
2023/03/24 20:26:24;;;;;;;13.27;8.73;;;12.60;99.90;;;;;;10243044;29;20249;-90
2023/03/24 20:31:27;;;;;;;14.20;8.83;;;12.80;99.90;;;;;;10246526;29;20249;-91
2023/03/24 20:36:31;;;;;;;20.00;12.60;;;13.10;99.90;;;;;;10230081;29;20259;-89
2023/03/24 20:41:33;;;;;;;25.23;13.87;;;11.80;99.90;;;;;;10222780;29;20237;-90
2023/03/24 20:46:36;;;;;;;20.83;13.03;;;11.00;99.90;;;;;;10235056;29;20268;-92
2023/03/24 20:51:39;;;;;;;16.83;10.60;;;10.50;99.90;;;;;;10220670;29;20267;-91
2023/03/24 20:56:42;;;;;;;10.93;6.37;;;11.00;99.90;;;;;;10173632;29;20294;-91
2023/03/24 21:01:47;;;;;;;14.10;6.60;;;11.60;99.90;;;;;;10217119;29;20390;-91
2023/03/24 21:06:49;;;;;;;6.50;4.87;;;11.90;99.90;;;;;;10244200;28;20245;-91
2023/03/24 21:11:52;;;;;;;13.87;9.13;;;12.20;99.90;;;;;;10212359;29;20644;-90
2023/03/24 21:16:55;;;;;;;12.20;7.53;;;12.10;99.90;;;;;;10206493;29;20262;-92
2023/03/24 21:21:58;;;;;;;9.00;5.47;;;12.50;99.90;;;;;;10186272;29;20234;-92
2023/03/24 21:27:01;;;;;;;13.90;9.87;;;12.50;99.90;;;;;;10203761;29;20290;-92
2023/03/24 21:32:03;;;;;;;8.77;6.77;;;12.20;99.90;;;;;;10187648;29;21045;-92
2023/03/24 21:37:08;;;;;;;15.17;8.70;;;12.20;99.90;;;;;;10195363;29;20325;-92
2023/03/24 21:42:14;;;;;;;12.23;8.03;;;12.60;99.90;;;;;;10204164;29;20238;-91
2023/03/24 21:47:17;;;;;;;7.67;5.70;;;12.60;99.90;;;;;;10204186;29;20674;-91
2023/03/24 21:52:19;;;;;;;6.50;5.60;;;13.10;99.90;;;;;;10204039;29;20728;-92
2023/03/24 21:57:23;;;;;;;9.97;6.30;;;13.50;99.90;;;;;;10215584;29;20241;-91
2023/03/24 22:02:26;;;;;;;8.37;6.03;;;13.50;99.90;;;;;;10237005;29;20238;-91
2023/03/24 22:07:36;;;;;;;15.20;8.73;;;13.60;99.90;;;;;;10237788;29;20329;-92
2023/03/24 22:12:40;;;;;;;11.20;7.17;;;13.40;99.90;;;;;;10208328;29;20298;-94
2023/03/24 22:17:43;;;;;;;9.00;6.53;;;11.40;99.90;;;;;;10223332;28;21497;-93
2023/03/24 22:22:46;;;;;;;8.97;6.87;;;11.60;99.90;;;;;;10218992;29;20242;-93
2023/03/24 22:27:49;;;;;;;12.63;8.73;;;11.10;99.90;;;;;;10226391;29;20233;-91
2023/03/24 22:32:54;;;;;;;9.70;7.63;;;10.80;99.90;;;;;;10218254;29;20310;-92
2023/03/24 22:37:56;;;;;;;9.33;6.73;;;10.50;99.90;;;;;;10210828;29;20295;-91
2023/03/24 22:42:59;;;;;;;10.47;7.00;;;10.50;99.90;;;;;;10206637;29;20249;-90
2023/03/24 22:48:01;;;;;;;13.47;9.60;;;11.00;99.90;;;;;;10205785;29;20743;-91
2023/03/24 22:53:04;;;;;;;11.27;7.77;;;11.40;99.90;;;;;;10205494;29;20251;-91
2023/03/24 22:58:07;;;;;;;6.50;5.37;;;11.60;99.90;;;;;;10188157;29;20242;-92
2023/03/24 23:03:10;;;;;;;12.25;7.90;;;11.90;99.90;;;;;;10205477;29;20238;-92
2023/03/24 23:08:14;;;;;;;12.27;8.57;;;11.90;99.90;;;;;;10205470;29;20759;-93
2023/03/24 23:13:17;;;;;;;11.47;7.37;;;11.10;99.90;;;;;;10208691;29;20712;-92
2023/03/24 23:18:19;;;;;;;9.83;7.77;;;11.00;99.90;;;;;;10203368;29;20235;-91
2023/03/24 23:23:22;;;;;;;13.60;8.53;;;10.50;99.90;;;;;;10194681;29;20246;-93
2023/03/24 23:28:25;;;;;;;12.90;8.30;;;10.00;99.90;;;;;;10206159;29;20223;-91
2023/03/24 23:33:27;;;;;;;11.37;7.40;;;10.20;99.90;;;;;;10207131;29;20321;-92
2023/03/24 23:38:32;;;;;;;15.37;9.33;;;9.90;99.90;;;;;;10212692;29;20301;-91
2023/03/24 23:43:35;;;;;;;8.33;6.73;;;10.00;99.90;;;;;;10212181;29;20301;-91
2023/03/24 23:48:37;;;;;;;10.27;7.70;;;10.30;99.90;;;;;;10211880;29;20286;-91
2023/03/24 23:53:40;;;;;;;11.93;7.30;;;10.20;99.90;;;;;;10212768;29;20298;-92
2023/03/24 23:58:43;;;;;;;7.73;5.23;;;11.00;99.90;;;;;;10211694;29;20298;-91
